createdAt,value
2023-02-19T00:01:33.693Z,7.43
2023-02-19T00:05:35.287Z,7.57
2023-02-19T00:09:38.070Z,7.56
2023-02-19T00:13:41.415Z,7.58
2023-02-19T00:17:42.847Z,7.59
2023-02-19T00:21:44.483Z,7.57
2023-02-19T00:25:47.250Z,7.62
2023-02-19T00:29:48.684Z,7.63
2023-02-19T00:33:52.349Z,7.67
2023-02-19T00:37:53.792Z,7.79
2023-02-19T00:41:56.553Z,7.74
2023-02-19T00:45:57.980Z,7.70
2023-02-19T00:49:59.405Z,7.63
2023-02-19T00:54:01.184Z,7.62
2023-02-19T00:58:03.996Z,7.56
2023-02-19T01:02:05.441Z,7.61
2023-02-19T01:06:08.805Z,7.50
2023-02-19T01:10:10.330Z,7.58
2023-02-19T01:14:13.179Z,7.60
2023-02-19T01:18:14.638Z,7.62
2023-02-19T01:22:16.107Z,7.62
2023-02-19T01:26:20.061Z,7.54
2023-02-19T01:30:22.895Z,7.52
2023-02-19T01:34:24.552Z,7.48
2023-02-19T01:38:26.152Z,7.47
2023-02-19T01:42:27.590Z,7.52
2023-02-19T01:46:31.709Z,7.60
2023-02-19T01:50:38.503Z,7.66
2023-02-19T01:54:42.709Z,7.60
2023-02-19T01:58:45.144Z,7.51
2023-02-19T02:02:52.480Z,7.38
2023-02-19T02:06:56.296Z,7.24
2023-02-19T02:10:57.917Z,7.12
2023-02-19T02:14:59.494Z,7.01
2023-02-19T02:19:14.417Z,6.97
2023-02-19T02:23:28.237Z,7.06
2023-02-19T02:27:44.030Z,7.04
2023-02-19T02:31:49.813Z,7.03
2023-02-19T02:35:54.271Z,6.99
2023-02-19T02:39:58.233Z,6.95
2023-02-19T02:43:59.703Z,6.96
2023-02-19T02:48:08.878Z,7.00
2023-02-19T02:52:10.377Z,6.92
2023-02-19T02:56:14.056Z,6.85
2023-02-19T03:00:15.841Z,6.78
2023-02-19T03:04:27.917Z,6.81
2023-02-19T03:08:33.989Z,6.79
2023-02-19T03:12:39.831Z,6.69
2023-02-19T03:16:43.121Z,6.72
2023-02-19T03:20:51.624Z,6.62
2023-02-19T03:24:56.997Z,6.62
2023-02-19T03:28:59.991Z,6.61
2023-02-19T03:33:04.350Z,6.63
2023-02-19T03:37:13.447Z,6.67
2023-02-19T03:41:23.200Z,6.67
2023-02-19T03:45:34.968Z,6.64
2023-02-19T03:49:44.218Z,6.69
2023-02-19T03:53:54.118Z,6.64
2023-02-19T03:58:00.949Z,6.65
2023-02-19T04:02:06.504Z,6.62
2023-02-19T04:06:13.627Z,6.62
2023-02-19T04:10:18.675Z,6.63
2023-02-19T04:14:24.585Z,6.59
2023-02-19T04:18:31.101Z,6.56
2023-02-19T04:22:34.484Z,6.52
2023-02-19T04:26:37.645Z,6.60
2023-02-19T04:30:39.123Z,6.52
2023-02-19T04:34:40.918Z,6.53
2023-02-19T04:38:42.319Z,6.49
2023-02-19T04:42:45.137Z,6.47
2023-02-19T04:46:46.654Z,6.49
2023-02-19T04:50:48.118Z,6.49
2023-02-19T04:54:49.599Z,6.48
2023-02-19T04:58:52.387Z,6.48
2023-02-19T05:02:53.807Z,6.49
2023-02-19T05:06:55.252Z,6.56
2023-02-19T05:10:57.855Z,6.55
2023-02-19T05:15:00.649Z,6.58
2023-02-19T05:19:02.120Z,6.57
2023-02-19T05:23:03.561Z,6.58
2023-02-19T05:27:05.121Z,6.59
2023-02-19T05:31:09.296Z,6.58
2023-02-19T05:35:11.006Z,6.55
2023-02-19T05:39:12.457Z,6.54
2023-02-19T05:43:14.851Z,6.49
2023-02-19T05:47:17.642Z,6.49
2023-02-19T05:51:23.542Z,6.49
2023-02-19T05:55:24.979Z,6.48
2023-02-19T05:59:26.926Z,6.46
2023-02-19T06:03:29.768Z,6.47
2023-02-19T06:07:31.612Z,6.41
2023-02-19T06:11:33.119Z,6.50
2023-02-19T06:15:34.591Z,6.49
2023-02-19T06:19:37.418Z,6.48
2023-02-19T06:23:39.724Z,6.49
2023-02-19T06:27:41.166Z,6.45
2023-02-19T06:31:42.814Z,6.49
2023-02-19T06:35:45.679Z,6.54
2023-02-19T06:39:47.110Z,6.55
2023-02-19T06:43:48.593Z,6.54
2023-02-19T06:47:50.049Z,6.58
2023-02-19T06:51:52.840Z,6.52
2023-02-19T06:55:58.601Z,6.50
2023-02-19T07:00:00.024Z,6.48
2023-02-19T07:04:01.883Z,6.49
2023-02-19T07:08:05.092Z,6.49
2023-02-19T07:12:06.918Z,6.50
2023-02-19T07:16:09.829Z,6.27
2023-02-19T07:20:12.099Z,5.75
2023-02-19T07:24:14.951Z,5.26
2023-02-19T07:28:16.445Z,5.08
2023-02-19T07:32:18.031Z,4.83
2023-02-19T07:36:20.916Z,4.60
2023-02-19T07:40:23.699Z,4.41
2023-02-19T07:44:25.133Z,4.16
2023-02-19T07:48:26.578Z,4.13
2023-02-19T07:52:28.165Z,3.95
2023-02-19T07:56:31.092Z,3.79
2023-02-19T08:00:32.520Z,3.79
2023-02-19T08:04:34.129Z,3.66
2023-02-19T08:08:35.743Z,3.57
2023-02-19T08:12:38.521Z,3.56
2023-02-19T08:16:43.251Z,3.56
2023-02-19T08:20:45.107Z,3.53
2023-02-19T08:24:46.588Z,3.53
2023-02-19T08:28:49.497Z,3.46
2023-02-19T08:32:50.993Z,3.30
2023-02-19T08:36:52.417Z,3.19
2023-02-19T08:40:53.869Z,3.18
2023-02-19T08:44:56.649Z,3.08
2023-02-19T08:48:58.114Z,2.82
2023-02-19T08:52:59.934Z,2.70
2023-02-19T08:57:01.376Z,2.63
2023-02-19T09:01:09.058Z,2.57
2023-02-19T09:05:10.970Z,2.50
2023-02-19T09:09:12.418Z,2.45
2023-02-19T09:13:13.840Z,2.46
2023-02-19T09:17:16.695Z,2.42
2023-02-19T09:21:18.171Z,2.21
2023-02-19T09:25:19.582Z,1.92
2023-02-19T09:29:21.951Z,1.95
2023-02-19T09:33:24.739Z,1.90
2023-02-19T09:37:26.916Z,1.94
2023-02-19T09:41:31.097Z,1.93
2023-02-19T09:45:34.697Z,2.00
2023-02-19T09:49:40.502Z,2.45
2023-02-19T09:53:44.725Z,2.63
2023-02-19T09:57:47.104Z,2.57
2023-02-19T10:01:52.257Z,2.73
2023-02-19T10:05:55.265Z,2.77
2023-02-19T10:10:00.343Z,2.91
2023-02-19T10:14:05.704Z,2.97
2023-02-19T10:18:08.849Z,3.27
2023-02-19T10:22:13.760Z,3.28
2023-02-19T10:26:15.325Z,3.25
2023-02-19T10:30:22.232Z,3.28
2023-02-19T10:34:23.782Z,3.29
2023-02-19T10:38:29.433Z,3.23
2023-02-19T10:42:31.583Z,3.38
2023-02-19T10:46:36.638Z,3.48
2023-02-19T10:50:38.289Z,3.33
2023-02-19T10:54:41.319Z,3.64
2023-02-19T10:58:44.214Z,3.61
2023-02-19T11:02:45.999Z,3.49
2023-02-19T11:06:48.114Z,3.23
2023-02-19T11:10:51.309Z,3.17
2023-02-19T11:14:53.021Z,3.12
2023-02-19T11:18:57.155Z,3.30
2023-02-19T11:23:03.822Z,3.55
2023-02-19T11:27:16.810Z,3.67
2023-02-19T11:31:26.977Z,3.46
2023-02-19T11:35:29.006Z,3.53
2023-02-19T11:39:31.170Z,3.73
2023-02-19T11:43:53.866Z,3.56
2023-02-19T11:48:14.974Z,3.68
2023-02-19T11:52:26.392Z,3.72
2023-02-19T11:56:34.032Z,3.70
2023-02-19T12:00:45.934Z,3.73
2023-02-19T12:05:07.073Z,3.76
2023-02-19T12:09:27.523Z,3.80
2023-02-19T12:13:35.808Z,3.92
2023-02-19T12:17:51.057Z,4.18
2023-02-19T12:22:11.562Z,4.27
2023-02-19T12:26:21.961Z,3.78
2023-02-19T12:30:34.008Z,3.87
2023-02-19T12:34:42.782Z,3.92
2023-02-19T12:38:48.030Z,3.97
2023-02-19T12:43:01.274Z,3.91
2023-02-19T12:47:05.023Z,4.01
2023-02-19T12:51:13.541Z,4.07
2023-02-19T12:55:22.081Z,4.14
2023-02-19T12:59:29.441Z,5.00
2023-02-19T13:03:38.936Z,4.90
2023-02-19T13:07:47.916Z,4.66
2023-02-19T13:11:54.552Z,4.87
2023-02-19T13:16:02.284Z,5.08
2023-02-19T13:20:16.050Z,5.84
2023-02-19T13:24:24.059Z,7.77
2023-02-19T13:28:41.964Z,7.38
2023-02-19T13:32:53.583Z,8.09
2023-02-19T13:36:55.912Z,7.31
2023-02-19T13:41:00.163Z,5.78
2023-02-19T13:45:03.650Z,5.26
2023-02-19T13:49:45.234Z,5.27
2023-02-19T13:53:57.067Z,4.60
2023-02-19T13:58:31.793Z,4.36
2023-02-19T14:02:35.033Z,4.21
2023-02-19T14:07:26.397Z,4.27
2023-02-19T14:12:04.675Z,4.27
2023-02-19T14:16:48.993Z,4.15
2023-02-19T14:21:07.357Z,4.18
2023-02-19T14:25:24.182Z,4.27
2023-02-19T14:29:27.831Z,4.31
2023-02-19T14:33:32.753Z,4.36
2023-02-19T14:37:35.672Z,4.58
2023-02-19T14:41:39.220Z,4.58
2023-02-19T14:45:43.282Z,4.56
2023-02-19T14:49:48.149Z,4.63
2023-02-19T14:53:53.121Z,4.66
2023-02-19T14:57:58.416Z,4.68
2023-02-19T15:02:02.980Z,4.91
2023-02-19T15:06:07.102Z,4.73
2023-02-19T15:10:13.949Z,4.68
2023-02-19T15:14:21.033Z,4.58
2023-02-19T15:18:24.873Z,4.51
2023-02-19T15:22:27.979Z,4.56
2023-02-19T15:26:34.744Z,4.53
2023-02-19T15:30:36.242Z,4.35
2023-02-19T15:34:37.824Z,4.33
2023-02-19T15:38:39.396Z,4.32
2023-02-19T15:42:46.074Z,4.38
2023-02-19T15:46:48.352Z,4.34
2023-02-19T15:50:53.645Z,4.25
2023-02-19T15:54:59.829Z,4.10
2023-02-19T15:59:07.063Z,3.95
2023-02-19T16:03:16.623Z,3.82
2023-02-19T16:07:24.649Z,3.66
2023-02-19T16:11:28.597Z,3.65
2023-02-19T16:15:32.473Z,3.60
2023-02-19T16:19:45.140Z,3.52
2023-02-19T16:23:49.323Z,3.40
2023-02-19T16:27:50.869Z,3.41
2023-02-19T16:31:56.324Z,3.21
2023-02-19T16:35:58.013Z,3.08
2023-02-19T16:40:49.059Z,3.05
2023-02-19T16:44:50.501Z,2.92
2023-02-19T16:48:54.369Z,2.89
2023-02-19T16:52:58.135Z,2.77
2023-02-19T16:56:59.578Z,2.73
2023-02-19T17:01:01.074Z,2.67
2023-02-19T17:05:04.124Z,2.62
2023-02-19T17:09:06.356Z,2.61
2023-02-19T17:13:08.803Z,2.52
2023-02-19T17:17:10.892Z,2.41
2023-02-19T17:21:16.222Z,2.23
2023-02-19T17:25:17.712Z,2.12
2023-02-19T17:29:19.273Z,2.01
2023-02-19T17:33:20.815Z,1.95
2023-02-19T17:37:23.787Z,1.87
2023-02-19T17:41:25.824Z,1.89
2023-02-19T17:45:27.701Z,1.85
2023-02-19T17:49:29.529Z,1.84
2023-02-19T17:53:32.504Z,1.81
2023-02-19T17:57:34.064Z,1.81
2023-02-19T18:01:35.627Z,1.78
2023-02-19T18:05:37.189Z,1.78
2023-02-19T18:09:40.074Z,1.76
2023-02-19T18:13:41.784Z,1.77
2023-02-19T18:17:43.287Z,1.79
2023-02-19T18:21:44.774Z,1.77
2023-02-19T18:25:47.670Z,1.77
2023-02-19T18:29:50.253Z,1.73
2023-02-19T18:33:51.746Z,1.71
2023-02-19T18:37:54.263Z,1.63
2023-02-19T18:41:57.158Z,1.54
2023-02-19T18:45:58.650Z,1.53
2023-02-19T18:50:00.219Z,1.52
2023-02-19T18:54:01.719Z,1.55
2023-02-19T18:58:04.638Z,1.46
2023-02-19T19:02:06.751Z,1.36
2023-02-19T19:06:08.219Z,1.29
2023-02-19T19:10:10.360Z,1.19
2023-02-19T19:14:14.016Z,1.18
2023-02-19T19:18:15.536Z,1.11
2023-02-19T19:22:17.022Z,1.04
2023-02-19T19:26:18.571Z,1.01
2023-02-19T19:30:21.632Z,1.02
2023-02-19T19:34:23.334Z,1.00
2023-02-19T19:38:25.510Z,0.95
2023-02-19T19:42:27.068Z,0.90
2023-02-19T19:46:29.842Z,0.87
2023-02-19T19:50:31.325Z,0.85
2023-02-19T19:54:32.795Z,0.83
2023-02-19T19:58:34.297Z,0.81
2023-02-19T20:02:37.079Z,0.78
2023-02-19T20:06:38.522Z,0.74
2023-02-19T20:10:40.107Z,0.70
2023-02-19T20:14:44.047Z,0.61
2023-02-19T20:18:46.834Z,0.63
2023-02-19T20:22:48.359Z,0.51
2023-02-19T20:26:50.389Z,0.46
2023-02-19T20:30:51.855Z,0.28
2023-02-19T20:34:54.637Z,0.07
2023-02-19T20:38:56.099Z,0.06
2023-02-19T20:42:57.561Z,-0.06
2023-02-19T20:46:59.859Z,-0.04
2023-02-19T20:51:03.919Z,0.13
2023-02-19T20:55:06.168Z,0.10
2023-02-19T20:59:08.325Z,0.15
2023-02-19T21:03:09.822Z,0.33
2023-02-19T21:07:12.675Z,0.48
2023-02-19T21:11:14.126Z,0.53
2023-02-19T21:15:15.668Z,0.51
2023-02-19T21:19:17.162Z,0.49
2023-02-19T21:23:20.016Z,0.60
2023-02-19T21:27:21.461Z,0.75
2023-02-19T21:31:25.377Z,0.89
2023-02-19T21:35:27.007Z,0.87
2023-02-19T21:39:29.949Z,0.79
2023-02-19T21:43:31.823Z,0.76
2023-02-19T21:47:33.262Z,0.68
2023-02-19T21:51:37.039Z,0.55
2023-02-19T21:55:42.938Z,0.54
2023-02-19T21:59:51.440Z,0.46
2023-02-19T22:03:53.059Z,0.41
2023-02-19T22:07:54.512Z,0.36
2023-02-19T22:11:57.333Z,0.31
2023-02-19T22:15:58.877Z,0.28
2023-02-19T22:20:00.370Z,0.23
2023-02-19T22:24:03.084Z,0.24
2023-02-19T22:28:06.101Z,0.24
2023-02-19T22:32:07.718Z,0.27
2023-02-19T22:36:17.921Z,0.51
2023-02-19T22:40:19.382Z,0.75
2023-02-19T22:44:22.205Z,0.90
2023-02-19T22:48:30.147Z,0.99
2023-02-19T22:52:31.856Z,1.08
2023-02-19T22:56:33.419Z,1.05
2023-02-19T23:00:36.226Z,1.19
2023-02-19T23:04:37.831Z,1.26
2023-02-19T23:08:39.319Z,1.40
2023-02-19T23:12:41.361Z,1.44
2023-02-19T23:16:44.628Z,1.51
2023-02-19T23:20:46.094Z,1.55
2023-02-19T23:24:47.546Z,1.58
2023-02-19T23:28:48.997Z,1.58
2023-02-19T23:32:51.832Z,1.58
2023-02-19T23:36:54.310Z,1.69
2023-02-19T23:40:55.739Z,1.71
2023-02-19T23:44:57.172Z,1.79
2023-02-19T23:48:59.944Z,1.87
2023-02-19T23:53:02.397Z,1.88
2023-02-19T23:57:04.027Z,2.00
